sensor_id;sensor_type;location;lat;lon;timestamp;pressure;altitude;pressure_sealevel;temperature;humidity
40850;BME280;26571;41.610;25.380;2024-01-06T00:01:00;98272.09;;;11.46;nan
40850;BME280;26571;41.610;25.380;2024-01-06T00:03:26;98271.44;;;11.44;nan
40850;BME280;26571;41.610;25.380;2024-01-06T00:05:51;98274.06;;;11.44;nan
40850;BME280;26571;41.610;25.380;2024-01-06T00:08:17;98280.63;;;11.48;nan
40850;BME280;26571;41.610;25.380;2024-01-06T00:10:42;98286.28;;;11.45;nan
40850;BME280;26571;41.610;25.380;2024-01-06T00:13:07;98279.72;;;11.41;nan
40850;BME280;26571;41.610;25.380;2024-01-06T00:15:33;98285.81;;;11.41;nan
40850;BME280;26571;41.610;25.380;2024-01-06T00:17:58;98283.16;;;11.41;nan
40850;BME280;26571;41.610;25.380;2024-01-06T00:20:24;98274.78;;;11.37;nan
40850;BME280;26571;41.610;25.380;2024-01-06T00:22:49;98285.69;;;11.34;nan
40850;BME280;26571;41.610;25.380;2024-01-06T00:25:15;98285.22;;;11.31;nan
40850;BME280;26571;41.610;25.380;2024-01-06T00:27:40;98287.66;;;11.32;nan
40850;BME280;26571;41.610;25.380;2024-01-06T00:30:06;98283.09;;;11.26;nan
40850;BME280;26571;41.610;25.380;2024-01-06T00:32:32;98270.13;;;11.17;nan
40850;BME280;26571;41.610;25.380;2024-01-06T00:34:57;98292.00;;;11.25;nan
40850;BME280;26571;41.610;25.380;2024-01-06T00:37:23;98279.13;;;11.30;nan
40850;BME280;26571;41.610;25.380;2024-01-06T00:39:49;98281.75;;;11.30;nan
40850;BME280;26571;41.610;25.380;2024-01-06T00:42:14;98282.28;;;11.26;nan
40850;BME280;26571;41.610;25.380;2024-01-06T00:44:39;98271.97;;;11.16;nan
40850;BME280;26571;41.610;25.380;2024-01-06T00:47:05;98286.13;;;11.15;nan
40850;BME280;26571;41.610;25.380;2024-01-06T00:49:30;98273.97;;;11.14;nan
40850;BME280;26571;41.610;25.380;2024-01-06T00:51:56;98273.25;;;11.20;nan
40850;BME280;26571;41.610;25.380;2024-01-06T00:54:21;98265.47;;;11.27;nan
40850;BME280;26571;41.610;25.380;2024-01-06T00:56:47;98266.56;;;11.32;nan
40850;BME280;26571;41.610;25.380;2024-01-06T00:59:12;98269.06;;;11.34;nan
40850;BME280;26571;41.610;25.380;2024-01-06T01:01:38;98253.19;;;11.19;nan
40850;BME280;26571;41.610;25.380;2024-01-06T01:04:03;98263.31;;;11.30;nan
40850;BME280;26571;41.610;25.380;2024-01-06T01:06:29;98253.47;;;11.24;nan
40850;BME280;26571;41.610;25.380;2024-01-06T01:08:54;98256.41;;;11.29;nan
40850;BME280;26571;41.610;25.380;2024-01-06T01:11:20;98230.72;;;11.23;nan
40850;BME280;26571;41.610;25.380;2024-01-06T01:13:46;98225.81;;;11.20;nan
40850;BME280;26571;41.610;25.380;2024-01-06T01:16:11;98258.97;;;11.37;nan
40850;BME280;26571;41.610;25.380;2024-01-06T01:18:36;98255.69;;;11.35;nan
40850;BME280;26571;41.610;25.380;2024-01-06T01:21:02;98251.25;;;11.36;nan
40850;BME280;26571;41.610;25.380;2024-01-06T01:23:28;98259.97;;;11.36;nan
40850;BME280;26571;41.610;25.380;2024-01-06T01:25:54;98248.31;;;11.31;nan
40850;BME280;26571;41.610;25.380;2024-01-06T01:28:20;98243.22;;;11.29;nan
40850;BME280;26571;41.610;25.380;2024-01-06T01:30:45;98246.19;;;11.26;nan
40850;BME280;26571;41.610;25.380;2024-01-06T01:33:11;98230.22;;;11.28;nan
40850;BME280;26571;41.610;25.380;2024-01-06T01:35:36;98225.69;;;11.36;nan
40850;BME280;26571;41.610;25.380;2024-01-06T01:38:02;98223.69;;;11.38;nan
40850;BME280;26571;41.610;25.380;2024-01-06T01:40:28;98214.53;;;11.34;nan
40850;BME280;26571;41.610;25.380;2024-01-06T01:42:53;98209.03;;;11.44;nan
40850;BME280;26571;41.610;25.380;2024-01-06T01:45:18;98198.75;;;11.49;nan
40850;BME280;26571;41.610;25.380;2024-01-06T01:47:44;98189.47;;;11.53;nan
40850;BME280;26571;41.610;25.380;2024-01-06T01:50:12;98196.03;;;11.57;nan
40850;BME280;26571;41.610;25.380;2024-01-06T01:52:39;98194.88;;;11.60;nan
40850;BME280;26571;41.610;25.380;2024-01-06T01:55:05;98189.59;;;11.60;nan
40850;BME280;26571;41.610;25.380;2024-01-06T01:57:30;98162.22;;;11.46;nan
40850;BME280;26571;41.610;25.380;2024-01-06T01:59:56;98162.84;;;11.48;nan
40850;BME280;26571;41.610;25.380;2024-01-06T02:02:22;98155.47;;;11.44;nan
40850;BME280;26571;41.610;25.380;2024-01-06T02:04:48;98179.59;;;11.55;nan
40850;BME280;26571;41.610;25.380;2024-01-06T02:07:13;98178.66;;;11.48;nan
40850;BME280;26571;41.610;25.380;2024-01-06T02:09:39;98177.31;;;11.52;nan
40850;BME280;26571;41.610;25.380;2024-01-06T02:12:05;98172.22;;;11.51;nan
40850;BME280;26571;41.610;25.380;2024-01-06T02:14:30;98162.22;;;11.46;nan
40850;BME280;26571;41.610;25.380;2024-01-06T02:16:58;98155.84;;;11.41;nan
40850;BME280;26571;41.610;25.380;2024-01-06T02:19:23;98168.09;;;11.48;nan
40850;BME280;26571;41.610;25.380;2024-01-06T02:21:52;98153.44;;;11.31;nan
40850;BME280;26571;41.610;25.380;2024-01-06T02:24:18;98171.47;;;11.42;nan
40850;BME280;26571;41.610;25.380;2024-01-06T02:26:43;98169.94;;;11.48;nan
40850;BME280;26571;41.610;25.380;2024-01-06T02:29:09;98178.38;;;11.43;nan
40850;BME280;26571;41.610;25.380;2024-01-06T02:31:34;98170.00;;;11.39;nan
40850;BME280;26571;41.610;25.380;2024-01-06T02:34:00;98163.75;;;11.41;nan
40850;BME280;26571;41.610;25.380;2024-01-06T02:36:25;98149.91;;;11.38;nan
40850;BME280;26571;41.610;25.380;2024-01-06T02:38:51;98149.28;;;11.36;nan
40850;BME280;26571;41.610;25.380;2024-01-06T02:41:16;98138.69;;;11.22;nan
40850;BME280;26571;41.610;25.380;2024-01-06T02:43:42;98145.81;;;11.36;nan
40850;BME280;26571;41.610;25.380;2024-01-06T02:46:07;98134.25;;;11.22;nan
40850;BME280;26571;41.610;25.380;2024-01-06T02:48:33;98144.91;;;11.29;nan
40850;BME280;26571;41.610;25.380;2024-01-06T02:50:58;98137.72;;;11.37;nan
40850;BME280;26571;41.610;25.380;2024-01-06T02:53:23;98135.38;;;11.43;nan
40850;BME280;26571;41.610;25.380;2024-01-06T02:55:49;98145.47;;;11.39;nan
40850;BME280;26571;41.610;25.380;2024-01-06T02:58:14;98139.75;;;11.35;nan
40850;BME280;26571;41.610;25.380;2024-01-06T03:00:40;98122.28;;;11.34;nan
40850;BME280;26571;41.610;25.380;2024-01-06T03:03:05;98104.06;;;11.10;nan
40850;BME280;26571;41.610;25.380;2024-01-06T03:05:31;98137.16;;;11.27;nan
40850;BME280;26571;41.610;25.380;2024-01-06T03:07:56;98141.63;;;11.04;nan
40850;BME280;26571;41.610;25.380;2024-01-06T03:10:22;98127.63;;;11.26;nan
40850;BME280;26571;41.610;25.380;2024-01-06T03:12:48;98135.78;;;11.17;nan
40850;BME280;26571;41.610;25.380;2024-01-06T03:15:13;98140.91;;;11.33;nan
40850;BME280;26571;41.610;25.380;2024-01-06T03:17:39;98139.38;;;11.38;nan
40850;BME280;26571;41.610;25.380;2024-01-06T03:20:05;98139.97;;;11.49;nan
40850;BME280;26571;41.610;25.380;2024-01-06T03:22:30;98138.19;;;11.41;nan
40850;BME280;26571;41.610;25.380;2024-01-06T03:24:56;98130.47;;;11.39;nan
40850;BME280;26571;41.610;25.380;2024-01-06T03:27:21;98129.81;;;11.37;nan
40850;BME280;26571;41.610;25.380;2024-01-06T03:29:47;98137.09;;;11.35;nan
40850;BME280;26571;41.610;25.380;2024-01-06T03:32:12;98141.84;;;11.40;nan
40850;BME280;26571;41.610;25.380;2024-01-06T03:34:38;98145.00;;;11.35;nan
40850;BME280;26571;41.610;25.380;2024-01-06T03:37:03;98149.22;;;11.22;nan
40850;BME280;26571;41.610;25.380;2024-01-06T03:39:29;98139.41;;;11.16;nan
40850;BME280;26571;41.610;25.380;2024-01-06T03:41:54;98143.38;;;11.11;nan
40850;BME280;26571;41.610;25.380;2024-01-06T03:44:20;98140.19;;;11.01;nan
40850;BME280;26571;41.610;25.380;2024-01-06T03:46:45;98137.06;;;10.98;nan
40850;BME280;26571;41.610;25.380;2024-01-06T03:49:11;98131.91;;;10.81;nan
40850;BME280;26571;41.610;25.380;2024-01-06T03:51:36;98147.81;;;10.88;nan
40850;BME280;26571;41.610;25.380;2024-01-06T03:54:02;98149.31;;;10.91;nan
40850;BME280;26571;41.610;25.380;2024-01-06T03:56:27;98147.69;;;10.90;nan
40850;BME280;26571;41.610;25.380;2024-01-06T03:58:52;98145.34;;;10.95;nan
40850;BME280;26571;41.610;25.380;2024-01-06T04:01:18;98146.88;;;11.04;nan
40850;BME280;26571;41.610;25.380;2024-01-06T04:03:43;98152.78;;;11.14;nan
40850;BME280;26571;41.610;25.380;2024-01-06T04:06:09;98147.75;;;11.04;nan
40850;BME280;26571;41.610;25.380;2024-01-06T04:08:39;98149.56;;;11.19;nan
40850;BME280;26571;41.610;25.380;2024-01-06T04:11:05;98145.69;;;11.15;nan
40850;BME280;26571;41.610;25.380;2024-01-06T04:13:31;98148.84;;;11.10;nan
40850;BME280;26571;41.610;25.380;2024-01-06T04:15:56;98154.41;;;11.15;nan
40850;BME280;26571;41.610;25.380;2024-01-06T04:18:22;98146.50;;;11.15;nan
40850;BME280;26571;41.610;25.380;2024-01-06T04:20:47;98141.22;;;11.15;nan
40850;BME280;26571;41.610;25.380;2024-01-06T04:23:12;98143.88;;;11.15;nan
40850;BME280;26571;41.610;25.380;2024-01-06T04:25:38;98144.50;;;11.17;nan
40850;BME280;26571;41.610;25.380;2024-01-06T04:28:04;98150.00;;;11.30;nan
40850;BME280;26571;41.610;25.380;2024-01-06T04:30:29;98145.91;;;11.43;nan
40850;BME280;26571;41.610;25.380;2024-01-06T04:32:55;98148.03;;;11.62;nan
40850;BME280;26571;41.610;25.380;2024-01-06T04:35:22;98143.53;;;11.71;nan
40850;BME280;26571;41.610;25.380;2024-01-06T04:37:48;98143.09;;;11.82;nan
40850;BME280;26571;41.610;25.380;2024-01-06T04:40:14;98139.84;;;11.95;nan
40850;BME280;26571;41.610;25.380;2024-01-06T04:42:39;98131.09;;;12.09;nan
40850;BME280;26571;41.610;25.380;2024-01-06T04:45:05;98118.28;;;12.06;nan
40850;BME280;26571;41.610;25.380;2024-01-06T04:47:31;98130.34;;;12.30;nan
40850;BME280;26571;41.610;25.380;2024-01-06T04:49:56;98140.16;;;12.36;nan
40850;BME280;26571;41.610;25.380;2024-01-06T04:52:22;98126.66;;;12.46;nan
40850;BME280;26571;41.610;25.380;2024-01-06T04:54:48;98123.03;;;12.47;nan
40850;BME280;26571;41.610;25.380;2024-01-06T04:57:13;98126.81;;;12.59;nan
40850;BME280;26571;41.610;25.380;2024-01-06T04:59:51;98127.72;;;12.66;nan
40850;BME280;26571;41.610;25.380;2024-01-06T05:02:17;98132.63;;;12.69;nan
40850;BME280;26571;41.610;25.380;2024-01-06T05:04:42;98117.59;;;12.70;nan
40850;BME280;26571;41.610;25.380;2024-01-06T05:07:08;98125.72;;;12.68;nan
40850;BME280;26571;41.610;25.380;2024-01-06T05:09:33;98124.81;;;12.82;nan
40850;BME280;26571;41.610;25.380;2024-01-06T05:11:58;98128.09;;;12.84;nan
40850;BME280;26571;41.610;25.380;2024-01-06T05:14:24;98085.31;;;12.53;nan
40850;BME280;26571;41.610;25.380;2024-01-06T05:16:49;98122.56;;;12.79;nan
40850;BME280;26571;41.610;25.380;2024-01-06T05:19:15;98133.75;;;12.81;nan
40850;BME280;26571;41.610;25.380;2024-01-06T05:21:46;98104.88;;;12.58;nan
40850;BME280;26571;41.610;25.380;2024-01-06T05:24:11;98143.31;;;12.82;nan
40850;BME280;26571;41.610;25.380;2024-01-06T05:26:37;98138.41;;;12.79;nan
40850;BME280;26571;41.610;25.380;2024-01-06T05:29:02;98138.41;;;12.79;nan
40850;BME280;26571;41.610;25.380;2024-01-06T05:31:28;98122.78;;;12.63;nan
40850;BME280;26571;41.610;25.380;2024-01-06T05:33:54;98140.66;;;12.82;nan
40850;BME280;26571;41.610;25.380;2024-01-06T05:36:19;98140.09;;;12.87;nan
40850;BME280;26571;41.610;25.380;2024-01-06T05:38:48;98152.94;;;12.90;nan
40850;BME280;26571;41.610;25.380;2024-01-06T05:41:13;98158.03;;;12.91;nan
40850;BME280;26571;41.610;25.380;2024-01-06T05:43:39;98153.16;;;12.88;nan
40850;BME280;26571;41.610;25.380;2024-01-06T05:46:04;98152.75;;;12.91;nan
40850;BME280;26571;41.610;25.380;2024-01-06T05:48:30;98145.84;;;12.90;nan
40850;BME280;26571;41.610;25.380;2024-01-06T05:50:55;98156.41;;;12.90;nan
40850;BME280;26571;41.610;25.380;2024-01-06T05:53:21;98147.41;;;12.85;nan
40850;BME280;26571;41.610;25.380;2024-01-06T05:55:46;98144.66;;;12.93;nan
40850;BME280;26571;41.610;25.380;2024-01-06T05:58:12;98156.47;;;12.97;nan
40850;BME280;26571;41.610;25.380;2024-01-06T06:00:38;98148.38;;;12.99;nan
40850;BME280;26571;41.610;25.380;2024-01-06T06:03:04;98127.09;;;12.85;nan
40850;BME280;26571;41.610;25.380;2024-01-06T06:05:30;98138.53;;;12.92;nan
40850;BME280;26571;41.610;25.380;2024-01-06T06:07:55;98156.56;;;13.04;nan
40850;BME280;26571;41.610;25.380;2024-01-06T06:10:23;98138.06;;;13.04;nan
40850;BME280;26571;41.610;25.380;2024-01-06T06:12:55;98140.31;;;13.07;nan
40850;BME280;26571;41.610;25.380;2024-01-06T06:15:20;98136.69;;;13.08;nan
40850;BME280;26571;41.610;25.380;2024-01-06T06:17:46;98103.94;;;12.87;nan
40850;BME280;26571;41.610;25.380;2024-01-06T06:20:12;98122.03;;;13.12;nan
40850;BME280;26571;41.610;25.380;2024-01-06T06:22:37;98126.97;;;13.15;nan
40850;BME280;26571;41.610;25.380;2024-01-06T06:25:03;98118.03;;;13.16;nan
40850;BME280;26571;41.610;25.380;2024-01-06T06:27:28;98086.09;;;12.89;nan
40850;BME280;26571;41.610;25.380;2024-01-06T06:29:55;98128.84;;;13.21;nan
40850;BME280;26571;41.610;25.380;2024-01-06T06:32:23;98132.78;;;13.25;nan
40850;BME280;26571;41.610;25.380;2024-01-06T06:34:50;98134.84;;;13.30;nan
40850;BME280;26571;41.610;25.380;2024-01-06T06:37:15;98130.56;;;13.29;nan
40850;BME280;26571;41.610;25.380;2024-01-06T06:39:41;98129.75;;;13.28;nan
40850;BME280;26571;41.610;25.380;2024-01-06T06:43:02;97589.31;;;9.07;nan
40850;BME280;26571;41.610;25.380;2024-01-06T06:45:21;98129.19;;;13.33;nan
40850;BME280;26571;41.610;25.380;2024-01-06T06:47:48;98108.41;;;13.30;nan
40850;BME280;26571;41.610;25.380;2024-01-06T06:50:17;98117.78;;;13.32;nan
40850;BME280;26571;41.610;25.380;2024-01-06T06:52:42;98110.50;;;13.34;nan
40850;BME280;26571;41.610;25.380;2024-01-06T06:55:08;98115.38;;;13.37;nan
40850;BME280;26571;41.610;25.380;2024-01-06T06:57:36;98099.16;;;13.19;nan
40850;BME280;26571;41.610;25.380;2024-01-06T07:00:01;98115.78;;;13.34;nan
40850;BME280;26571;41.610;25.380;2024-01-06T07:02:27;98117.41;;;13.35;nan
40850;BME280;26571;41.610;25.380;2024-01-06T07:04:52;98115.38;;;13.37;nan
40850;BME280;26571;41.610;25.380;2024-01-06T07:07:19;98068.44;;;13.18;nan
40850;BME280;26571;41.610;25.380;2024-01-06T07:09:44;98107.09;;;13.47;nan
40850;BME280;26571;41.610;25.380;2024-01-06T07:12:09;98105.72;;;13.51;nan
40850;BME280;26571;41.610;25.380;2024-01-06T07:14:35;98076.34;;;13.39;nan
40850;BME280;26571;41.610;25.380;2024-01-06T07:17:02;98114.81;;;13.70;nan
40850;BME280;26571;41.610;25.380;2024-01-06T07:19:29;98080.53;;;13.55;nan
40850;BME280;26571;41.610;25.380;2024-01-06T07:21:54;98118.16;;;13.85;nan
40850;BME280;26571;41.610;25.380;2024-01-06T07:24:20;98117.78;;;13.88;nan
40850;BME280;26571;41.610;25.380;2024-01-06T07:26:45;98116.38;;;13.92;nan
40850;BME280;26571;41.610;25.380;2024-01-06T07:29:11;98106.63;;;14.00;nan
40850;BME280;26571;41.610;25.380;2024-01-06T07:31:36;98100.38;;;14.07;nan
40850;BME280;26571;41.610;25.380;2024-01-06T07:34:02;98104.06;;;14.13;nan
40850;BME280;26571;41.610;25.380;2024-01-06T07:36:27;98088.31;;;14.05;nan
40850;BME280;26571;41.610;25.380;2024-01-06T07:38:53;98075.13;;;14.11;nan
40850;BME280;26571;41.610;25.380;2024-01-06T07:41:18;97867.84;;;12.88;nan
40850;BME280;26571;41.610;25.380;2024-01-06T07:43:43;98088.47;;;14.38;nan
40850;BME280;26571;41.610;25.380;2024-01-06T07:46:09;98091.38;;;14.50;nan
40850;BME280;26571;41.610;25.380;2024-01-06T07:48:35;98092.41;;;14.48;nan
40850;BME280;26571;41.610;25.380;2024-01-06T07:51:01;98065.66;;;14.43;nan
40850;BME280;26571;41.610;25.380;2024-01-06T07:53:27;98083.84;;;14.60;nan
40850;BME280;26571;41.610;25.380;2024-01-06T07:55:53;98077.97;;;14.64;nan
40850;BME280;26571;41.610;25.380;2024-01-06T07:58:18;98081.03;;;14.68;nan
40850;BME280;26571;41.610;25.380;2024-01-06T08:00:44;98087.56;;;14.72;nan
40850;BME280;26571;41.610;25.380;2024-01-06T08:03:10;98082.88;;;14.74;nan
40850;BME280;26571;41.610;25.380;2024-01-06T08:05:36;98084.72;;;14.67;nan
40850;BME280;26571;41.610;25.380;2024-01-06T08:08:03;98082.28;;;14.72;nan
40850;BME280;26571;41.610;25.380;2024-01-06T08:10:29;98065.75;;;14.70;nan
40850;BME280;26571;41.610;25.380;2024-01-06T08:12:55;98078.19;;;14.76;nan
40850;BME280;26571;41.610;25.380;2024-01-06T08:15:20;98084.50;;;14.75;nan
40850;BME280;26571;41.610;25.380;2024-01-06T08:17:46;98066.56;;;14.64;nan
40850;BME280;26571;41.610;25.380;2024-01-06T08:20:12;98067.19;;;14.79;nan
40850;BME280;26571;41.610;25.380;2024-01-06T08:22:38;98073.69;;;14.77;nan
40850;BME280;26571;41.610;25.380;2024-01-06T08:25:04;98062.50;;;14.94;nan
40850;BME280;26571;41.610;25.380;2024-01-06T08:27:31;98076.19;;;14.98;nan
40850;BME280;26571;41.610;25.380;2024-01-06T08:29:57;98077.81;;;14.99;nan
40850;BME280;26571;41.610;25.380;2024-01-06T08:32:22;98071.69;;;15.05;nan
40850;BME280;26571;41.610;25.380;2024-01-06T08:34:48;98066.78;;;15.09;nan
40850;BME280;26571;41.610;25.380;2024-01-06T08:37:13;98065.78;;;15.10;nan
40850;BME280;26571;41.610;25.380;2024-01-06T08:39:39;98065.97;;;15.21;nan
40850;BME280;26571;41.610;25.380;2024-01-06T08:42:05;98071.28;;;15.28;nan
40850;BME280;26571;41.610;25.380;2024-01-06T08:44:30;98063.94;;;15.30;nan
40850;BME280;26571;41.610;25.380;2024-01-06T08:46:56;98066.78;;;15.35;nan
40850;BME280;26571;41.610;25.380;2024-01-06T08:49:22;98053.72;;;15.40;nan
40850;BME280;26571;41.610;25.380;2024-01-06T08:51:47;98062.91;;;15.44;nan
40850;BME280;26571;41.610;25.380;2024-01-06T08:54:12;98060.03;;;15.52;nan
40850;BME280;26571;41.610;25.380;2024-01-06T08:56:38;98038.81;;;15.39;nan
40850;BME280;26571;41.610;25.380;2024-01-06T08:59:04;98060.88;;;15.66;nan
40850;BME280;26571;41.610;25.380;2024-01-06T09:01:30;98052.44;;;15.76;nan
40850;BME280;26571;41.610;25.380;2024-01-06T09:03:57;98056.09;;;15.88;nan
40850;BME280;26571;41.610;25.380;2024-01-06T09:06:23;98040.97;;;15.89;nan
40850;BME280;26571;41.610;25.380;2024-01-06T09:08:48;98045.84;;;15.98;nan
40850;BME280;26571;41.610;25.380;2024-01-06T09:11:14;98040.13;;;16.01;nan
40850;BME280;26571;41.610;25.380;2024-01-06T09:13:40;98037.06;;;15.98;nan
40850;BME280;26571;41.610;25.380;2024-01-06T09:16:05;98007.94;;;15.78;nan
40850;BME280;26571;41.610;25.380;2024-01-06T09:18:31;98006.72;;;15.74;nan
40850;BME280;26571;41.610;25.380;2024-01-06T09:20:57;98030.81;;;15.66;nan
40850;BME280;26571;41.610;25.380;2024-01-06T09:23:22;98035.78;;;15.42;nan
40850;BME280;26571;41.610;25.380;2024-01-06T09:25:48;98032.88;;;15.57;nan
40850;BME280;26571;41.610;25.380;2024-01-06T09:28:18;98017.38;;;15.54;nan
40850;BME280;26571;41.610;25.380;2024-01-06T09:30:43;98011.19;;;15.80;nan
40850;BME280;26571;41.610;25.380;2024-01-06T09:33:09;98027.66;;;16.02;nan
40850;BME280;26571;41.610;25.380;2024-01-06T09:35:35;97974.91;;;15.67;nan
40850;BME280;26571;41.610;25.380;2024-01-06T09:38:00;98030.09;;;16.03;nan
40850;BME280;26571;41.610;25.380;2024-01-06T09:40:26;98030.41;;;15.82;nan
40850;BME280;26571;41.610;25.380;2024-01-06T09:42:52;98034.44;;;15.91;nan
40850;BME280;26571;41.610;25.380;2024-01-06T09:45:21;98039.50;;;16.44;nan
40850;BME280;26571;41.610;25.380;2024-01-06T09:47:55;98030.34;;;16.72;nan
40850;BME280;26571;41.610;25.380;2024-01-06T09:50:21;98037.47;;;16.78;nan
40850;BME280;26571;41.610;25.380;2024-01-06T09:52:55;97978.28;;;16.26;nan
40850;BME280;26571;41.610;25.380;2024-01-06T09:55:29;98022.22;;;16.60;nan
40850;BME280;26571;41.610;25.380;2024-01-06T09:57:57;98024.34;;;16.51;nan
40850;BME280;26571;41.610;25.380;2024-01-06T10:00:23;98023.47;;;16.58;nan
40850;BME280;26571;41.610;25.380;2024-01-06T10:02:51;98024.13;;;16.53;nan
40850;BME280;26571;41.610;25.380;2024-01-06T10:05:17;97988.63;;;16.41;nan
40850;BME280;26571;41.610;25.380;2024-01-06T10:07:43;98001.13;;;16.65;nan
40850;BME280;26571;41.610;25.380;2024-01-06T10:10:10;98015.16;;;16.79;nan
40850;BME280;26571;41.610;25.380;2024-01-06T10:12:40;98007.25;;;16.97;nan
40850;BME280;26571;41.610;25.380;2024-01-06T10:15:10;98000.19;;;17.10;nan
40850;BME280;26571;41.610;25.380;2024-01-06T10:17:40;97997.97;;;17.07;nan
40850;BME280;26571;41.610;25.380;2024-01-06T10:20:15;97974.47;;;17.03;nan
40850;BME280;26571;41.610;25.380;2024-01-06T10:23:17;97966.25;;;17.05;nan
40850;BME280;26571;41.610;25.380;2024-01-06T10:25:45;97976.34;;;17.21;nan
40850;BME280;26571;41.610;25.380;2024-01-06T10:28:11;97961.50;;;17.32;nan
40850;BME280;26571;41.610;25.380;2024-01-06T10:30:39;97948.28;;;17.44;nan
40850;BME280;26571;41.610;25.380;2024-01-06T10:33:10;97952.19;;;17.41;nan
40850;BME280;26571;41.610;25.380;2024-01-06T10:35:39;97942.22;;;17.37;nan
40850;BME280;26571;41.610;25.380;2024-01-06T10:38:26;97925.38;;;17.06;nan
40850;BME280;26571;41.610;25.380;2024-01-06T10:41:04;97952.59;;;17.20;nan
40850;BME280;26571;41.610;25.380;2024-01-06T10:43:34;97934.66;;;17.15;nan
40850;BME280;26571;41.610;25.380;2024-01-06T10:46:03;97931.34;;;17.20;nan
40850;BME280;26571;41.610;25.380;2024-01-06T10:48:32;97922.69;;;17.24;nan
40850;BME280;26571;41.610;25.380;2024-01-06T10:51:01;97902.94;;;16.95;nan
40850;BME280;26571;41.610;25.380;2024-01-06T10:53:33;97910.22;;;17.07;nan
40850;BME280;26571;41.610;25.380;2024-01-06T10:56:01;97916.72;;;17.11;nan
40850;BME280;26571;41.610;25.380;2024-01-06T10:58:27;97899.94;;;17.10;nan
40850;BME280;26571;41.610;25.380;2024-01-06T11:00:56;97902.00;;;17.08;nan
40850;BME280;26571;41.610;25.380;2024-01-06T11:03:22;97901.13;;;17.14;nan
40850;BME280;26571;41.610;25.380;2024-01-06T11:05:48;97900.16;;;17.27;nan
40850;BME280;26571;41.610;25.380;2024-01-06T11:08:36;97891.00;;;17.23;nan
40850;BME280;26571;41.610;25.380;2024-01-06T11:11:25;97746.25;;;16.20;nan
40850;BME280;26571;41.610;25.380;2024-01-06T11:13:51;97874.44;;;17.02;nan
40850;BME280;26571;41.610;25.380;2024-01-06T11:16:36;97895.00;;;17.32;nan
40850;BME280;26571;41.610;25.380;2024-01-06T11:24:47;97878.88;;;17.27;nan
40850;BME280;26571;41.610;25.380;2024-01-06T11:27:43;97879.16;;;17.37;nan
40850;BME280;26571;41.610;25.380;2024-01-06T11:30:23;97883.41;;;17.26;nan
40850;BME280;26571;41.610;25.380;2024-01-06T11:32:50;97883.44;;;17.20;nan
40850;BME280;26571;41.610;25.380;2024-01-06T11:35:18;97880.66;;;17.15;nan
40850;BME280;26571;41.610;25.380;2024-01-06T11:43:05;97876.50;;;16.82;nan
40850;BME280;26571;41.610;25.380;2024-01-06T11:45:32;97854.72;;;16.48;nan
40850;BME280;26571;41.610;25.380;2024-01-06T11:48:02;97869.94;;;16.60;nan
40850;BME280;26571;41.610;25.380;2024-01-06T11:50:32;97864.78;;;16.40;nan
40850;BME280;26571;41.610;25.380;2024-01-06T11:52:59;97870.66;;;16.48;nan
40850;BME280;26571;41.610;25.380;2024-01-06T11:55:27;97873.88;;;16.50;nan
40850;BME280;26571;41.610;25.380;2024-01-06T11:57:54;97807.06;;;16.28;nan
40850;BME280;26571;41.610;25.380;2024-01-06T12:00:21;97862.72;;;16.67;nan
40850;BME280;26571;41.610;25.380;2024-01-06T12:02:47;97804.94;;;16.37;nan
40850;BME280;26571;41.610;25.380;2024-01-06T12:05:18;97852.84;;;16.74;nan
40850;BME280;26571;41.610;25.380;2024-01-06T12:07:56;97855.34;;;16.69;nan
40850;BME280;26571;41.610;25.380;2024-01-06T12:10:23;97844.81;;;16.55;nan
40850;BME280;26571;41.610;25.380;2024-01-06T12:15:29;97856.78;;;16.65;nan
40850;BME280;26571;41.610;25.380;2024-01-06T12:17:54;97854.22;;;16.58;nan
40850;BME280;26571;41.610;25.380;2024-01-06T12:20:21;97845.78;;;16.43;nan
40850;BME280;26571;41.610;25.380;2024-01-06T12:22:47;97824.69;;;16.23;nan
40850;BME280;26571;41.610;25.380;2024-01-06T12:25:14;97849.56;;;16.28;nan
40850;BME280;26571;41.610;25.380;2024-01-06T12:27:44;97814.72;;;15.93;nan
40850;BME280;26571;41.610;25.380;2024-01-06T12:30:14;97846.16;;;15.90;nan
40850;BME280;26571;41.610;25.380;2024-01-06T12:32:42;97852.91;;;15.92;nan
40850;BME280;26571;41.610;25.380;2024-01-06T12:35:09;97857.19;;;15.93;nan
40850;BME280;26571;41.610;25.380;2024-01-06T12:37:35;97850.59;;;15.96;nan
40850;BME280;26571;41.610;25.380;2024-01-06T12:40:01;97720.72;;;15.13;nan
40850;BME280;26571;41.610;25.380;2024-01-06T12:42:27;97853.88;;;15.98;nan
40850;BME280;26571;41.610;25.380;2024-01-06T12:44:52;97847.75;;;15.97;nan
40850;BME280;26571;41.610;25.380;2024-01-06T12:47:18;97847.59;;;15.92;nan
40850;BME280;26571;41.610;25.380;2024-01-06T12:49:43;97844.53;;;15.89;nan
40850;BME280;26571;41.610;25.380;2024-01-06T12:52:09;97839.72;;;15.79;nan
40850;BME280;26571;41.610;25.380;2024-01-06T12:54:35;97845.88;;;15.73;nan
40850;BME280;26571;41.610;25.380;2024-01-06T12:57:00;97838.50;;;15.75;nan
40850;BME280;26571;41.610;25.380;2024-01-06T12:59:26;97839.75;;;15.72;nan
40850;BME280;26571;41.610;25.380;2024-01-06T13:01:51;97833.25;;;15.68;nan
40850;BME280;26571;41.610;25.380;2024-01-06T13:04:17;97824.38;;;15.81;nan
40850;BME280;26571;41.610;25.380;2024-01-06T13:06:42;97820.50;;;15.84;nan
40850;BME280;26571;41.610;25.380;2024-01-06T13:09:08;97784.63;;;15.74;nan
40850;BME280;26571;41.610;25.380;2024-01-06T13:11:35;97825.66;;;16.03;nan
40850;BME280;26571;41.610;25.380;2024-01-06T13:14:01;97822.75;;;16.12;nan
40850;BME280;26571;41.610;25.380;2024-01-06T13:16:27;97838.88;;;16.35;nan
40850;BME280;26571;41.610;25.380;2024-01-06T13:18:52;97826.53;;;16.47;nan
40850;BME280;26571;41.610;25.380;2024-01-06T13:21:18;97849.94;;;16.32;nan